Huvudsida
METAR-TAF:

METAR-TAF

Flygplatser :

Bizerte, Tunisien

latitud: 37-15N, longitud: 009-48E, höjd: 5 m

Aktuellt väderrapport

Denna rapport gjordes för 40 minuter sedan, klockan 19:00 UTC
Vind 9 kt från väst/nordväst
Temperatur 15°C
Fuktighet 82%
Tryck 1021 hPa
Sikt 10 km eller mer
Spridda moln på en höjd av 2000 ft

METAR: DTTB 281900Z 29009KT 9999 SCT020 15/12 Q1021

Tid: 20:40 (19:40 UTC)

Väderprognos

Denna rapport gjordes för 1 timme och 40 minuter sedan, klockan 18:00 UTC
Prognos gäller från 28 kl. 19 UTC till 29 kl. 04 UTC
Vind 12 kt från väst/nordväst
Sikt 10 km eller mer
Spridda moln på en höjd av 2000 ft
Blir
från 28 kl. 20 UTC till 28 kl. 22 UTC
Vind 4 kt varierande vindriktning
Sannolikhet 30%
från 29 kl. 00 UTC till 29 kl. 04 UTC
Sikt: 3000 m
fuktdis

TAF: DTTB 281800Z 2819/2904 30012KT 9999 SCT020 BECMG 2820/2822 VRB04KT PROB30 2900/2904 3000 BR

Aktuella väderrapporter och prognoser från 4000 flygplatser (METAR- och TAF-rapporter).

De tillgängliga stationerna syns som gula och röda prickar på kartan.

För musen över prickarna för att se namnen på stationerna.

Klicka sedan för att få väderrapporter och prognoser.

För att ändra kartan: Klicka på de gröna knapparna med ett svart kors på för att zooma in; den gröna knappen med ett streck på för att zooma ut; eller på de gröna pilarna för angränsande kartor.


METAR-TAF: